East Liberty, Pennsylvania
Current Conditions -  °F | °C
As of 11:46 AM on Tuesday 21 Oct 2014 (Local Time) from KAGC Reporting Station
Overcast Overcast  
Wind Chill: 52°   Ceiling: 4900
Heat Index: 52°   Visibility: 10mi
Dew Point: 45°   Wind: 12mph
Humidity: 77%   Direction: 350°N
Pressure: 29.88"   Gusts: 18mph
Location:  40.4715°N, 79.9138°W
Report Text: KAGC 211546Z 35010G16KT 10SM SCT016 BKN049 OVC065 11/07 A2988 RMK AO2 RAB26E38 P0000 T01110072
Loading
Personal Weather Stations






























Interactive Weather Map New forecast layout! Learn more

10-Day Weather Forecast

Advertisements
Track Severe Weather on mobile